Time;durP1;ratioP1;P1;durP2;ratioP2;P2;SDS_P1;SDS_P2;PMS_P1;PMS_P2;Temp;Humidity;BMP_temperature;BMP_pressure;BME280_temperature;BME280_humidity;BME280_pressure;Samples;Min_cycle;Max_cycle;Signal;HPM_P1;HPM_P2
2022/05/04 00:01:33;;;;;;;11.05;7.10;;;;;;;11.47;62.73;99416.09;5017828;28;20523;-53
2022/05/04 00:03:58;;;;;;;16.55;8.02;;;;;;;11.53;62.42;99420.47;5008428;28;20121;-53
2022/05/04 00:06:24;;;;;;;11.90;6.70;;;;;;;11.52;64.31;99416.19;5012706;28;20041;-53
2022/05/04 00:08:49;;;;;;;16.15;7.28;;;;;;;11.49;62.87;99425.53;5015600;28;20113;-52
2022/05/04 00:11:15;;;;;;;14.50;8.07;;;;;;;11.53;63.57;99425.84;5019326;28;20040;-52
2022/05/04 00:13:40;;;;;;;11.50;6.95;;;;;;;11.52;64.16;99424.22;4991849;28;20487;-53
2022/05/04 00:16:06;;;;;;;11.55;6.85;;;;;;;11.47;63.97;99421.47;5007232;28;20100;-52
2022/05/04 00:18:32;;;;;;;12.32;6.95;;;;;;;11.29;64.56;99414.47;4978272;28;20034;-51
2022/05/04 00:20:57;;;;;;;10.68;7.55;;;;;;;11.33;64.26;99413.75;5000613;28;20349;-54
2022/05/04 00:23:23;;;;;;;11.65;7.53;;;;;;;11.22;64.46;99420.78;4981250;28;20040;-53
2022/05/04 00:25:49;;;;;;;13.18;7.45;;;;;;;11.23;64.97;99424.28;4981886;28;20040;-53
2022/05/04 00:28:14;;;;;;;11.63;7.18;;;;;;;11.19;65.00;99425.81;5013213;28;20379;-51
2022/05/04 00:30:40;;;;;;;10.55;7.68;;;;;;;11.12;65.43;99427.84;5006496;28;20029;-52
2022/05/04 00:33:06;;;;;;;12.95;7.10;;;;;;;11.18;65.45;99429.53;5012803;28;20124;-52
2022/05/04 00:35:32;;;;;;;11.48;7.88;;;;;;;11.15;65.58;99424.66;5008356;28;20056;-51
2022/05/04 00:37:58;;;;;;;11.93;7.25;;;;;;;11.11;66.03;99426.22;5024397;28;20100;-52
2022/05/04 00:40:23;;;;;;;13.13;7.63;;;;;;;11.10;65.98;99429.94;5011971;28;20467;-51
2022/05/04 00:42:49;;;;;;;10.77;7.13;;;;;;;11.00;66.81;99420.66;4989856;28;20085;-52
2022/05/04 00:45:15;;;;;;;11.88;7.43;;;;;;;11.01;66.76;99426.84;5014507;28;20175;-52
2022/05/04 00:47:40;;;;;;;16.50;7.60;;;;;;;11.06;66.37;99431.47;5011046;28;20084;-50
2022/05/04 00:50:07;;;;;;;11.73;7.50;;;;;;;10.97;66.63;99428.38;4993476;28;20040;-53
2022/05/04 00:52:34;;;;;;;11.63;7.53;;;;;;;10.94;67.10;99429.66;5007215;28;20041;-50
2022/05/04 00:55:00;;;;;;;15.85;8.55;;;;;;;10.99;66.92;99429.75;5020307;28;20049;-50
2022/05/04 01:00:10;;;;;;;11.07;8.30;;;;;;;10.96;66.98;99434.81;4992710;28;20104;-50
2022/05/04 01:02:40;;;;;;;11.77;8.57;;;;;;;10.94;67.47;99434.22;5015799;28;20051;-49
2022/05/04 01:05:09;;;;;;;17.50;8.68;;;;;;;11.00;67.38;99431.38;5010154;28;20033;-53
2022/05/04 01:07:36;;;;;;;16.20;8.13;;;;;;;11.00;67.24;99425.22;4984708;28;20030;-50
2022/05/04 01:10:03;;;;;;;17.40;8.15;;;;;;;11.05;67.50;99427.19;5009254;28;20033;-53
2022/05/04 01:12:29;;;;;;;15.10;9.10;;;;;;;10.94;67.29;99428.88;5007190;28;20030;-50
2022/05/04 01:14:54;;;;;;;15.23;8.80;;;;;;;11.00;67.34;99430.56;4995153;28;20110;-52
2022/05/04 01:17:20;;;;;;;15.90;8.75;;;;;;;10.99;67.83;99421.72;5006741;28;20701;-50
2022/05/04 01:19:48;;;;;;;13.95;8.65;;;;;;;10.92;67.80;99423.72;5007354;28;20049;-50
2022/05/04 01:22:13;;;;;;;15.05;9.20;;;;;;;10.86;68.22;99419.34;5008175;28;20037;-50
2022/05/04 01:24:39;;;;;;;15.52;9.00;;;;;;;10.85;68.33;99415.00;5015044;28;20076;-51
2022/05/04 01:27:10;;;;;;;15.73;8.35;;;;;;;10.82;68.50;99420.06;5006697;28;20083;-51
2022/05/04 01:29:36;;;;;;;16.27;8.95;;;;;;;10.79;68.60;99422.16;5010180;28;20034;-50
2022/05/04 01:32:01;;;;;;;15.57;9.30;;;;;;;10.84;68.92;99417.94;5013537;28;20048;-51
2022/05/04 01:34:28;;;;;;;16.88;10.00;;;;;;;10.87;68.64;99423.63;5019087;28;20021;-50
2022/05/04 01:36:53;;;;;;;16.60;9.30;;;;;;;10.86;69.05;99416.66;5006007;28;20041;-50
2022/05/04 01:39:19;;;;;;;14.05;9.55;;;;;;;10.84;69.40;99417.94;5021436;28;20025;-52
2022/05/04 01:42:03;;;;;;;21.13;10.90;;;;;;;10.79;69.60;99424.84;5005951;28;20041;-52
2022/05/04 01:44:32;;;;;;;16.60;9.73;;;;;;;10.78;69.54;99422.38;5015554;28;20045;-53
2022/05/04 01:46:57;;;;;;;23.75;10.20;;;;;;;10.85;69.38;99423.06;5015312;28;20258;-53
2022/05/04 01:49:23;;;;;;;16.13;9.70;;;;;;;10.86;69.43;99416.66;5010812;28;20030;-53
2022/05/04 01:51:49;;;;;;;16.98;9.93;;;;;;;10.86;69.64;99430.06;5014966;28;20053;-50
2022/05/04 01:54:14;;;;;;;14.82;10.43;;;;;;;10.84;69.92;99429.47;5013698;28;20075;-52
2022/05/04 01:56:40;;;;;;;18.45;11.05;;;;;;;10.74;70.56;99429.28;4984205;28;20038;-50
2022/05/04 01:59:05;;;;;;;17.55;10.98;;;;;;;10.66;70.83;99421.59;5005173;28;20383;-51
2022/05/04 02:02:12;;;;;;;17.27;12.13;;;;;;;10.61;71.22;99414.28;4992563;28;20033;-53
2022/05/04 02:04:38;;;;;;;18.60;11.95;;;;;;;10.62;71.30;99431.19;5002014;28;20087;-53
2022/05/04 02:07:04;;;;;;;17.85;12.13;;;;;;;10.66;71.36;99421.59;4997215;28;20026;-53
2022/05/04 02:09:29;;;;;;;21.20;12.57;;;;;;;10.67;71.36;99428.59;5008625;28;20034;-51
2022/05/04 02:11:55;;;;;;;18.92;12.23;;;;;;;10.56;71.94;99420.38;4993923;28;20145;-53
2022/05/04 02:14:21;;;;;;;19.85;12.18;;;;;;;10.54;72.32;99408.25;4992234;28;20021;-52
2022/05/04 02:16:46;;;;;;;21.50;13.30;;;;;;;10.51;72.55;99406.88;5008740;28;20022;-53
2022/05/04 02:19:12;;;;;;;22.00;13.00;;;;;;;10.57;72.25;99413.13;4991388;28;20505;-53
2022/05/04 02:21:38;;;;;;;21.13;13.10;;;;;;;10.49;72.94;99422.38;5005452;28;20161;-50
2022/05/04 02:24:03;;;;;;;23.02;13.85;;;;;;;10.40;73.84;99417.59;5004901;28;20080;-50
2022/05/04 02:26:29;;;;;;;21.25;13.27;;;;;;;10.37;74.03;99410.84;5005864;28;20022;-50
2022/05/04 02:28:54;;;;;;;20.38;14.10;;;;;;;10.33;74.57;99407.00;5004930;28;20034;-50
2022/05/04 02:31:20;;;;;;;27.35;16.02;;;;;;;10.22;75.09;99408.63;4996499;28;20029;-52
2022/05/04 02:33:49;;;;;;;32.35;15.98;;;;;;;10.18;75.47;99403.97;5005356;28;20054;-50
2022/05/04 02:38:58;;;;;;;24.50;16.20;;;;;;;10.19;76.57;99411.00;5013787;28;20549;-53
2022/05/04 02:41:24;;;;;;;30.75;16.27;;;;;;;10.22;76.36;99414.00;5003341;28;20038;-53
2022/05/04 02:43:50;;;;;;;31.58;17.83;;;;;;;10.10;76.98;99403.28;5011007;28;20053;-50
2022/05/04 02:46:19;;;;;;;33.72;18.05;;;;;;;10.13;77.27;99410.88;5005761;28;20033;-50
2022/05/04 02:48:48;;;;;;;37.38;18.67;;;;;;;9.94;78.15;99404.03;5012818;28;20028;-51
2022/05/04 02:51:13;;;;;;;36.95;19.05;;;;;;;9.75;79.50;99399.81;5012270;28;20030;-51
2022/05/04 02:53:39;;;;;;;39.80;19.88;;;;;;;9.69;79.91;99397.03;4995677;28;20052;-50
2022/05/04 02:56:05;;;;;;;36.72;19.63;;;;;;;9.61;80.92;99397.38;4995845;28;20069;-50
2022/05/04 02:58:31;;;;;;;42.70;21.23;;;;;;;9.60;81.31;99398.41;5022118;28;20033;-50
2022/05/04 03:04:10;;;;;;;44.17;21.58;;;;;;;9.57;82.68;99390.88;5009194;28;20037;-52
2022/05/04 03:06:39;;;;;;;41.42;21.17;;;;;;;9.61;82.59;99389.38;4972791;28;20026;-52
2022/05/04 03:09:05;;;;;;;50.25;22.08;;;;;;;9.60;82.92;99393.06;5014810;28;20030;-55
2022/05/04 03:14:14;;;;;;;42.85;23.15;;;;;;;9.56;83.62;99397.28;5004584;28;20052;-53
2022/05/04 03:16:40;;;;;;;47.65;22.83;;;;;;;9.53;84.10;99395.03;5000832;28;20511;-52
2022/05/04 03:19:06;;;;;;;45.05;22.30;;;;;;;9.39;84.46;99401.66;5004478;28;20535;-50
2022/05/04 03:21:32;;;;;;;45.78;24.02;;;;;;;9.41;85.08;99400.41;4994405;28;20049;-52
2022/05/04 03:23:58;;;;;;;47.05;23.55;;;;;;;9.47;85.04;99412.03;5009169;28;20033;-49
2022/05/04 03:26:26;;;;;;;45.72;23.42;;;;;;;9.40;85.53;99411.31;5013618;28;20049;-49
2022/05/04 03:28:52;;;;;;;46.95;22.58;;;;;;;9.40;85.10;99412.13;5019243;28;20040;-52
2022/05/04 03:31:18;;;;;;;48.33;22.88;;;;;;;9.38;85.79;99406.19;5008797;28;20029;-50
2022/05/04 03:33:44;;;;;;;55.50;24.58;;;;;;;9.22;86.13;99405.00;4992777;28;20493;-52
2022/05/04 03:36:09;;;;;;;50.65;24.90;;;;;;;9.13;87.41;99414.38;5019068;28;20079;-54
2022/05/04 03:38:35;;;;;;;53.25;24.75;;;;;;;9.11;87.70;99412.97;5017506;28;20583;-51
2022/05/04 03:41:00;;;;;;;50.60;24.38;;;;;;;9.19;87.49;99413.47;4997850;28;20038;-50
2022/05/04 03:43:26;;;;;;;54.10;25.77;;;;;;;9.06;87.71;99414.50;5008623;28;20082;-53
2022/05/04 03:45:52;;;;;;;58.50;26.48;;;;;;;8.93;88.36;99414.66;5009284;28;20033;-55
2022/05/04 03:48:17;;;;;;;57.33;27.27;;;;;;;8.85;88.53;99418.47;5012803;28;20116;-53
2022/05/04 03:50:45;;;;;;;57.38;27.25;;;;;;;8.84;88.88;99419.53;5013564;28;20543;-50
2022/05/04 03:53:11;;;;;;;56.60;25.85;;;;;;;8.80;89.34;99426.34;4995723;28;20037;-51
2022/05/04 03:55:36;;;;;;;71.15;26.98;;;;;;;8.73;89.77;99420.28;5002283;28;20029;-53
2022/05/04 03:58:02;;;;;;;58.30;26.90;;;;;;;8.72;90.39;99424.00;5008753;28;20034;-52
2022/05/04 04:00:27;;;;;;;60.47;26.77;;;;;;;8.84;89.18;99427.53;5001288;28;20025;-50
2022/05/04 04:02:53;;;;;;;59.60;26.42;;;;;;;8.78;89.56;99423.09;5005633;28;20464;-52
2022/05/04 04:05:19;;;;;;;60.28;26.98;;;;;;;8.80;89.75;99425.53;5012580;28;20495;-50
2022/05/04 04:07:45;;;;;;;54.42;26.33;;;;;;;8.84;89.57;99427.53;5008520;28;20040;-51
2022/05/04 04:10:10;;;;;;;65.43;27.23;;;;;;;8.83;89.69;99425.91;5012582;28;20071;-52
2022/05/04 04:12:36;;;;;;;64.50;28.70;;;;;;;8.87;89.25;99420.13;5012625;28;20033;-52
2022/05/04 04:15:02;;;;;;;69.03;28.40;;;;;;;8.90;89.16;99425.81;4994027;28;20033;-50
2022/05/04 04:17:27;;;;;;;66.50;28.42;;;;;;;8.83;89.55;99428.56;5012572;28;20028;-52
2022/05/04 04:22:37;;;;;;;65.47;28.15;;;;;;;8.74;90.17;99437.16;5005982;28;20088;-51
2022/05/04 04:25:03;;;;;;;69.25;29.90;;;;;;;8.70;90.47;99438.63;5007211;28;20029;-53
2022/05/04 04:27:30;;;;;;;62.22;27.58;;;;;;;8.67;90.51;99431.88;5009443;28;20038;-51
2022/05/04 04:29:56;;;;;;;71.97;29.50;;;;;;;8.69;90.78;99439.69;5015839;28;20030;-51
2022/05/04 04:32:24;;;;;;;61.03;28.95;;;;;;;8.72;90.56;99440.03;5017320;28;20136;-50
2022/05/04 04:34:49;;;;;;;61.22;27.60;;;;;;;8.74;90.71;99445.16;4989022;28;20038;-53
2022/05/04 04:37:15;;;;;;;73.40;29.90;;;;;;;8.79;90.59;99443.44;4988842;28;20060;-53
2022/05/04 04:39:41;;;;;;;66.85;29.88;;;;;;;8.70;90.46;99439.44;5005073;28;20034;-51
2022/05/04 04:42:07;;;;;;;73.38;31.05;;;;;;;8.70;90.65;99436.78;5010337;28;20085;-52
2022/05/04 04:44:32;;;;;;;67.47;28.55;;;;;;;8.65;90.75;99439.31;5011848;28;20052;-51
2022/05/04 04:46:58;;;;;;;67.78;29.17;;;;;;;8.65;90.96;99444.66;4993706;28;20041;-55
2022/05/04 04:49:25;;;;;;;64.60;30.10;;;;;;;8.75;90.61;99439.59;5007874;28;20025;-53
2022/05/04 04:51:51;;;;;;;74.57;28.63;;;;;;;8.88;89.72;99448.47;5006261;28;20030;-51
2022/05/04 04:54:17;;;;;;;64.70;28.48;;;;;;;8.95;89.54;99450.00;5010194;28;20129;-53
2022/05/04 04:56:42;;;;;;;89.22;30.15;;;;;;;8.95;89.01;99457.22;4993068;28;20050;-54
2022/05/04 04:59:08;;;;;;;69.53;28.88;;;;;;;8.83;89.48;99452.63;4999949;28;20554;-53
2022/05/04 05:01:34;;;;;;;72.72;29.90;;;;;;;8.72;90.24;99456.06;5011730;28;20026;-51
2022/05/04 05:03:59;;;;;;;68.38;29.40;;;;;;;8.81;90.26;99462.75;5007686;28;20049;-53
2022/05/04 05:06:25;;;;;;;72.38;30.02;;;;;;;8.69;90.58;99456.53;5006259;28;20026;-50
2022/05/04 05:08:51;;;;;;;71.55;28.15;;;;;;;8.67;90.68;99461.28;5011050;28;20431;-53
2022/05/04 05:11:16;;;;;;;73.28;29.85;;;;;;;8.68;90.61;99465.56;5006793;28;20040;-50
2022/05/04 05:16:26;;;;;;;64.07;28.90;;;;;;;8.68;91.06;99468.25;5001712;28;20486;-52
2022/05/04 05:18:52;;;;;;;68.95;29.08;;;;;;;8.73;90.94;99465.72;5015421;28;20038;-52
2022/05/04 05:21:18;;;;;;;82.20;29.75;;;;;;;8.75;90.61;99462.81;5003045;28;20026;-50
2022/05/04 05:23:43;;;;;;;69.30;28.25;;;;;;;8.66;91.05;99467.63;5018659;28;20049;-51
2022/05/04 05:26:09;;;;;;;80.65;30.08;;;;;;;8.71;90.80;99472.31;4990176;28;20022;-51
2022/05/04 05:28:35;;;;;;;78.28;29.40;;;;;;;8.68;90.82;99462.91;5005967;28;20034;-53
2022/05/04 05:31:01;;;;;;;72.93;29.75;;;;;;;8.72;90.95;99474.78;4995345;28;20045;-51
2022/05/04 05:33:26;;;;;;;65.50;29.23;;;;;;;8.69;91.22;99467.22;5011204;28;20026;-52
2022/05/04 05:35:52;;;;;;;82.95;30.70;;;;;;;8.74;91.14;99470.03;5015457;28;20108;-51
2022/05/04 05:38:17;;;;;;;75.18;29.25;;;;;;;8.77;90.67;99469.56;5010551;28;20475;-52
2022/05/04 05:40:43;;;;;;;82.40;30.98;;;;;;;8.76;90.82;99467.13;4999953;28;20546;-54
2022/05/04 05:43:09;;;;;;;70.43;29.00;;;;;;;8.71;90.63;99465.16;5007576;28;20542;-54
2022/05/04 05:45:34;;;;;;;76.43;31.48;;;;;;;8.75;90.71;99471.66;4991773;28;20062;-53
2022/05/04 05:48:01;;;;;;;78.15;30.33;;;;;;;8.87;90.57;99473.59;5005485;28;20563;-53
2022/05/04 05:50:26;;;;;;;92.93;29.83;;;;;;;8.87;89.95;99465.56;5001444;28;20022;-52
2022/05/04 05:52:52;;;;;;;82.03;27.95;;;;;;;8.83;89.99;99460.66;5012063;28;20456;-53
2022/05/04 05:55:18;;;;;;;88.10;29.38;;;;;;;8.83;90.13;99463.31;4997105;28;20168;-52
2022/05/04 05:57:43;;;;;;;81.82;30.35;;;;;;;8.87;90.33;99455.69;5004261;28;20034;-52
2022/05/04 06:00:09;;;;;;;76.55;29.65;;;;;;;8.96;89.41;99456.16;4995499;28;20123;-50
2022/05/04 06:02:35;;;;;;;82.03;31.15;;;;;;;9.06;89.26;99457.28;5006708;28;20026;-52
2022/05/04 06:05:01;;;;;;;82.60;29.90;;;;;;;9.13;89.46;99461.72;5006556;28;20029;-52
2022/05/04 06:07:26;;;;;;;92.53;29.80;;;;;;;9.01;89.14;99458.97;5007415;28;20022;-54
2022/05/04 06:09:52;;;;;;;98.90;29.08;;;;;;;8.87;90.06;99462.88;4998001;28;20037;-51
2022/05/04 06:12:18;;;;;;;77.15;28.98;;;;;;;8.90;90.45;99470.44;5006738;28;20037;-51
2022/05/04 06:14:43;;;;;;;80.13;28.77;;;;;;;9.11;89.73;99463.78;4998827;28;20133;-53
2022/05/04 06:17:09;;;;;;;71.57;28.33;;;;;;;9.15;88.18;99471.13;5005765;28;20069;-52
2022/05/04 06:19:35;;;;;;;73.72;28.77;;;;;;;9.19;88.11;99472.31;5005014;28;20552;-51
2022/05/04 06:22:00;;;;;;;90.40;30.58;;;;;;;9.04;88.82;99463.91;4992492;28;20284;-51
2022/05/04 06:24:29;;;;;;;68.22;29.77;;;;;;;9.23;88.29;99468.13;4993135;28;20030;-55
2022/05/04 06:26:54;;;;;;;65.55;28.75;;;;;;;9.30;87.92;99468.03;5012381;28;20428;-52
2022/05/04 06:29:20;;;;;;;71.38;28.27;;;;;;;9.40;87.07;99473.66;5004985;28;20088;-49
2022/05/04 06:34:30;;;;;;;70.75;29.20;;;;;;;9.26;87.04;99466.84;4995433;28;20103;-53
2022/05/04 06:36:56;;;;;;;66.45;27.98;;;;;;;8.98;87.43;99473.63;5011500;28;20552;-54
2022/05/04 06:39:21;;;;;;;59.10;26.48;;;;;;;9.22;87.61;99466.50;5006923;28;20505;-51
2022/05/04 06:41:47;;;;;;;69.18;28.20;;;;;;;9.36;87.09;99466.31;5001668;28;20121;-53
2022/05/04 06:44:13;;;;;;;85.20;28.10;;;;;;;9.68;85.50;99456.13;5008042;28;20140;-52
2022/05/04 06:46:41;;;;;;;70.25;27.63;;;;;;;9.49;86.23;99455.44;4980506;28;20099;-52
2022/05/04 06:49:09;;;;;;;59.65;26.15;;;;;;;9.49;86.74;99458.09;5003002;28;20033;-51
2022/05/04 06:51:35;;;;;;;69.22;26.58;;;;;;;9.60;86.46;99468.00;5010882;28;20029;-50
2022/05/04 06:54:00;;;;;;;61.28;27.38;;;;;;;9.76;85.33;99460.34;5005573;28;20037;-53
2022/05/04 06:56:26;;;;;;;64.57;28.48;;;;;;;9.99;83.99;99465.72;5009136;28;20095;-51
2022/05/04 06:58:52;;;;;;;57.15;26.33;;;;;;;9.87;84.44;99464.91;5008270;28;20448;-50
2022/05/04 07:01:18;;;;;;;67.20;27.45;;;;;;;9.92;84.40;99470.38;5016468;28;20453;-52
2022/05/04 07:03:44;;;;;;;68.35;26.92;;;;;;;9.69;85.03;99471.16;5005926;28;20450;-52
2022/05/04 07:06:10;;;;;;;63.53;26.00;;;;;;;9.72;85.25;99466.16;5008537;28;20062;-53
2022/05/04 07:08:36;;;;;;;64.60;28.05;;;;;;;9.95;84.72;99475.25;5002801;28;20033;-51
2022/05/04 07:11:02;;;;;;;76.82;28.42;;;;;;;9.87;83.89;99470.25;5004413;28;20380;-51
2022/05/04 07:13:27;;;;;;;61.10;27.02;;;;;;;9.71;84.58;99475.25;5014043;28;20040;-50
2022/05/04 07:15:55;;;;;;;82.93;28.25;;;;;;;9.49;85.95;99476.84;4979666;28;20044;-53
2022/05/04 07:18:21;;;;;;;117.03;49.35;;;;;;;9.51;86.24;99464.03;5014073;28;20518;-50
2022/05/04 07:20:46;;;;;;;62.90;26.00;;;;;;;9.51;86.18;99477.41;5015114;28;20049;-52
2022/05/04 07:23:12;;;;;;;72.50;30.55;;;;;;;9.95;85.18;99475.25;5015434;28;20115;-50
2022/05/04 07:25:37;;;;;;;98.25;37.05;;;;;;;10.17;84.14;99477.38;5007966;28;20046;-51
2022/05/04 07:28:03;;;;;;;101.75;38.20;;;;;;;10.35;82.77;99477.25;5008836;28;20600;-52
2022/05/04 07:30:29;;;;;;;88.57;33.55;;;;;;;10.09;83.06;99482.03;5015137;28;20582;-53
2022/05/04 07:32:55;;;;;;;68.30;27.60;;;;;;;10.19;82.93;99483.31;4976977;28;20168;-53
2022/05/04 07:35:20;;;;;;;79.60;35.83;;;;;;;10.33;82.74;99480.19;5010241;28;20464;-51
2022/05/04 07:37:46;;;;;;;117.88;46.67;;;;;;;10.24;83.33;99486.91;4994756;28;20033;-53
2022/05/04 07:42:56;;;;;;;112.63;43.35;;;;;;;10.30;82.89;99485.19;5015001;28;20079;-53
2022/05/04 07:45:22;;;;;;;68.65;27.75;;;;;;;10.86;80.44;99497.09;5010619;28;20030;-50
2022/05/04 07:47:51;;;;;;;97.28;37.53;;;;;;;11.10;79.76;99491.66;5008432;28;20120;-53
2022/05/04 07:50:17;;;;;;;60.65;26.50;;;;;;;10.93;79.61;99488.91;5012197;28;20524;-50
2022/05/04 07:52:43;;;;;;;80.00;37.15;;;;;;;11.10;79.85;99494.31;5011790;28;20042;-50
2022/05/04 07:55:10;;;;;;;86.32;44.55;;;;;;;11.37;78.34;99486.50;4986811;28;20053;-50
2022/05/04 07:57:36;;;;;;;56.78;26.40;;;;;;;11.31;78.76;99503.59;5007240;28;20017;-55
2022/05/04 08:05:42;;;;;;;71.75;31.00;;;;;;;12.39;74.97;99503.47;5009037;28;20037;-53
2022/05/04 08:08:10;;;;;;;53.28;24.60;;;;;;;15.06;65.26;99500.16;4992312;28;20026;-53
2022/05/04 08:10:36;;;;;;;54.40;23.88;;;;;;;14.51;64.38;99506.09;5007781;28;20038;-53
2022/05/04 08:13:02;;;;;;;51.25;22.77;;;;;;;14.57;64.21;99505.09;5007816;28;20511;-54
2022/05/04 08:15:27;;;;;;;59.20;25.40;;;;;;;16.52;60.29;99506.97;5004706;28;20026;-51
2022/05/04 08:17:53;;;;;;;53.75;23.48;;;;;;;15.64;61.00;99502.72;5006713;28;20195;-52
2022/05/04 08:20:19;;;;;;;62.03;26.08;;;;;;;15.18;61.01;99499.13;5005404;28;20034;-52
2022/05/04 08:22:45;;;;;;;52.97;22.48;;;;;;;15.18;61.88;99496.44;4986126;28;20108;-53
2022/05/04 08:25:11;;;;;;;60.70;22.88;;;;;;;15.13;62.35;99491.81;5000683;28;20057;-51
2022/05/04 08:27:36;;;;;;;68.55;23.52;;;;;;;15.09;62.06;99488.03;5004248;28;20093;-53
2022/05/04 08:30:02;;;;;;;55.20;23.50;;;;;;;15.01;61.39;99488.53;4993902;28;20429;-52
2022/05/04 08:32:29;;;;;;;58.13;23.98;;;;;;;14.44;63.08;99490.97;5006339;28;20400;-52
2022/05/04 08:34:58;;;;;;;53.30;22.02;;;;;;;16.06;60.12;99488.13;5006611;28;20042;-52
2022/05/04 08:37:27;;;;;;;41.80;20.77;;;;;;;16.94;57.26;99486.81;5010006;28;20033;-54
2022/05/04 08:39:53;;;;;;;44.15;23.13;;;;;;;18.03;53.29;99485.03;5007489;28;20033;-53
2022/05/04 08:42:18;;;;;;;43.85;20.85;;;;;;;18.21;51.85;99488.94;5013965;28;20554;-51
2022/05/04 08:44:44;;;;;;;50.25;22.33;;;;;;;17.81;53.92;99497.16;4981141;28;20196;-50
2022/05/04 08:47:12;;;;;;;48.15;21.30;;;;;;;18.48;51.71;99501.97;4972684;28;20555;-52
2022/05/04 08:49:38;;;;;;;50.78;21.77;;;;;;;18.43;52.53;99499.28;5006447;28;20052;-50
2022/05/04 08:52:06;;;;;;;37.90;22.20;;;;;;;18.39;51.97;99498.25;4991050;28;20037;-51
2022/05/04 08:54:34;;;;;;;49.58;22.23;;;;;;;18.01;52.25;99498.06;4979753;28;20204;-51
2022/05/04 08:57:00;;;;;;;54.33;20.95;;;;;;;18.09;52.64;99502.88;4973577;28;20074;-53
2022/05/04 08:59:25;;;;;;;42.55;20.17;;;;;;;18.95;50.63;99505.78;5009233;28;20057;-53
2022/05/04 09:01:51;;;;;;;42.83;20.60;;;;;;;19.29;49.99;99504.78;4997376;28;20033;-52
2022/05/04 09:04:17;;;;;;;49.15;22.30;;;;;;;18.99;50.36;99495.13;4987404;28;20038;-53
2022/05/04 09:06:43;;;;;;;42.40;21.58;;;;;;;17.75;52.11;99506.41;5008812;28;20441;-53
2022/05/04 09:09:10;;;;;;;49.42;22.98;;;;;;;16.52;55.41;99498.84;5004138;28;20053;-53
2022/05/04 09:11:43;;;;;;;38.72;21.05;;;;;;;17.25;55.49;99495.63;5006524;28;20042;-51
2022/05/04 09:14:15;;;;;;;40.97;21.88;;;;;;;17.24;54.27;99491.28;5005426;28;20040;-52
2022/05/04 09:16:41;;;;;;;49.58;19.92;;;;;;;17.01;55.94;99492.75;5015646;28;20275;-50
2022/05/04 09:19:08;;;;;;;37.20;20.88;;;;;;;18.12;52.48;99494.16;5011125;28;20472;-53
2022/05/04 09:21:34;;;;;;;48.08;21.08;;;;;;;18.31;52.07;99486.13;5017509;28;20565;-52
2022/05/04 09:24:00;;;;;;;44.83;21.92;;;;;;;16.78;57.25;99493.41;4982412;28;20034;-53
2022/05/04 09:26:26;;;;;;;47.42;21.13;;;;;;;17.51;55.45;99491.94;5000214;28;20451;-50
2022/05/04 09:28:56;;;;;;;48.92;21.73;;;;;;;18.05;52.67;99488.28;4994045;28;20463;-53
2022/05/04 09:31:28;;;;;;;49.60;21.65;;;;;;;17.12;55.88;99487.28;5010501;28;20117;-51
2022/05/04 09:33:58;;;;;;;46.92;21.67;;;;;;;18.19;52.13;99482.97;5009584;28;20487;-53
2022/05/04 09:36:38;;;;;;;41.80;20.83;;;;;;;17.22;54.36;99479.09;5006908;28;20440;-52
2022/05/04 09:45:12;;;;;;;42.22;21.42;;;;;;;17.26;54.08;99480.16;5009543;28;20123;-51
2022/05/04 09:47:39;;;;;;;33.90;20.02;;;;;;;17.39;53.83;99476.81;5003696;28;20033;-53
2022/05/04 09:50:05;;;;;;;40.38;21.08;;;;;;;17.09;55.10;99477.00;5011140;28;20116;-53
2022/05/04 09:52:40;;;;;;;39.45;20.83;;;;;;;17.39;55.11;99476.81;5001977;28;20033;-53
2022/05/04 09:55:24;;;;;;;45.17;21.33;;;;;;;18.59;51.68;99475.50;4985693;28;20062;-53
2022/05/04 09:57:50;;;;;;;38.40;19.60;;;;;;;19.63;49.20;99482.00;4985643;28;20160;-54
2022/05/04 10:00:18;;;;;;;42.70;21.30;;;;;;;18.26;51.99;99478.84;4978693;28;20026;-54
2022/05/04 10:02:44;;;;;;;34.50;21.17;;;;;;;17.67;52.64;99477.16;5003011;28;20041;-54
2022/05/04 10:05:10;;;;;;;35.72;19.02;;;;;;;18.00;52.11;99481.00;4986516;28;20029;-53
2022/05/04 10:07:36;;;;;;;31.40;18.70;;;;;;;17.21;53.73;99480.19;5010579;28;20517;-53
2022/05/04 10:10:04;;;;;;;32.40;16.40;;;;;;;18.68;49.66;99474.56;5002773;28;20069;-52
2022/05/04 10:12:29;;;;;;;28.88;16.83;;;;;;;19.58;47.09;99480.16;4987434;28;20034;-53
2022/05/04 10:14:57;;;;;;;31.60;16.38;;;;;;;20.44;45.63;99480.63;4975518;28;20545;-53
2022/05/04 10:17:24;;;;;;;23.98;15.55;;;;;;;21.15;44.45;99477.53;4983432;28;20653;-54
2022/05/04 10:20:03;;;;;;;27.83;15.82;;;;;;;21.21;43.59;99479.03;5005862;28;20099;-52
2022/05/04 10:22:33;;;;;;;25.52;15.38;;;;;;;20.19;44.69;99473.72;4992763;28;20577;-54
2022/05/04 10:25:00;;;;;;;31.10;14.80;;;;;;;20.23;43.46;99471.19;4974932;28;20392;-52
2022/05/04 10:27:27;;;;;;;27.92;15.60;;;;;;;18.59;46.75;99464.63;5016250;28;20025;-53
2022/05/04 10:32:48;;;;;;;27.35;16.77;;;;;;;18.55;46.93;99459.00;4990400;28;20052;-53
2022/05/04 10:35:21;;;;;;;38.88;17.83;;;;;;;18.03;49.07;99457.91;4984807;28;20352;-50
2022/05/04 10:38:15;;;;;;;30.15;16.88;;;;;;;17.44;49.97;99463.25;5004422;28;20041;-53
2022/05/04 10:40:50;;;;;;;32.20;16.63;;;;;;;17.04;52.28;99454.28;5008345;28;20138;-53
2022/05/04 10:43:17;;;;;;;32.13;18.08;;;;;;;17.96;50.45;99452.03;4993209;28;20233;-53
2022/05/04 10:45:45;;;;;;;34.65;17.60;;;;;;;17.95;49.72;99458.53;4990692;28;20040;-51
2022/05/04 10:48:20;;;;;;;32.80;18.40;;;;;;;17.83;50.96;99454.31;5005747;28;20040;-53
2022/05/04 10:50:48;;;;;;;33.97;18.30;;;;;;;17.29;51.56;99452.50;5014731;28;20058;-54
2022/05/04 10:53:29;;;;;;;28.17;15.70;;;;;;;19.01;48.86;99452.19;5012534;28;20111;-52
2022/05/04 10:56:03;;;;;;;32.25;16.73;;;;;;;20.45;44.13;99443.31;5005275;28;20034;-54
2022/05/04 10:58:32;;;;;;;28.88;16.42;;;;;;;20.56;44.45;99443.94;5012352;28;20088;-51
2022/05/04 11:01:25;;;;;;;39.50;18.70;;;;;;;19.10;46.70;99445.03;5005796;28;20029;-53
2022/05/04 11:03:58;;;;;;;29.00;16.90;;;;;;;19.22;48.09;99437.22;4977035;28;20271;-51
2022/05/04 11:06:28;;;;;;;29.48;17.42;;;;;;;18.41;48.18;99433.66;5016602;28;20033;-52
2022/05/04 11:08:56;;;;;;;;;;;;;;;18.54;47.61;99436.44;5012272;28;20033;-53
2022/05/04 11:11:22;;;;;;;31.02;17.55;;;;;;;18.68;48.04;99433.06;5010716;28;19961;-52
2022/05/04 11:13:48;;;;;;;33.28;17.83;;;;;;;18.66;48.64;99433.34;5005377;28;20040;-51
2022/05/04 11:16:14;;;;;;;31.88;17.80;;;;;;;18.49;49.22;99422.94;5005146;28;20026;-53
2022/05/04 11:18:39;;;;;;;40.75;19.42;;;;;;;18.84;48.79;99422.81;4988797;28;20437;-53
2022/05/04 11:21:13;;;;;;;30.92;18.60;;;;;;;18.21;50.12;99419.19;5005407;28;20037;-51
2022/05/04 11:23:39;;;;;;;41.05;17.95;;;;;;;18.09;50.40;99413.38;5004801;28;20056;-53
2022/05/04 11:26:05;;;;;;;41.17;18.45;;;;;;;18.18;50.02;99405.44;5004714;28;20060;-53
2022/05/04 11:28:30;;;;;;;26.70;17.02;;;;;;;18.85;47.43;99408.16;5003935;28;20041;-52
2022/05/04 11:30:56;;;;;;;35.38;18.08;;;;;;;17.78;51.14;99397.38;5004498;28;20026;-52
2022/05/04 11:33:22;;;;;;;32.35;19.27;;;;;;;17.64;50.58;99405.34;4994611;28;20073;-51
2022/05/04 11:35:54;;;;;;;32.13;17.88;;;;;;;17.62;50.49;99404.03;5016721;28;20033;-49
2022/05/04 11:38:20;;;;;;;31.40;18.02;;;;;;;17.94;51.70;99392.63;5000415;28;20042;-51
2022/05/04 11:40:47;;;;;;;30.40;17.42;;;;;;;19.29;48.70;99398.81;4994725;28;20381;-54
2022/05/04 11:43:27;;;;;;;30.85;17.75;;;;;;;20.29;46.17;99396.50;4982059;28;20397;-53
2022/05/04 11:45:53;;;;;;;33.15;16.42;;;;;;;20.41;45.75;99396.00;5001511;28;20045;-53
2022/05/04 11:48:18;;;;;;;36.97;17.52;;;;;;;19.98;44.10;99386.22;4983280;28;20033;-53
2022/05/04 11:50:45;;;;;;;26.63;16.52;;;;;;;19.85;44.75;99389.75;5010694;28;20029;-53
2022/05/04 11:53:11;;;;;;;29.40;17.35;;;;;;;20.40;44.50;99392.47;5006099;28;20038;-53
2022/05/04 11:55:36;;;;;;;32.85;16.77;;;;;;;19.54;45.56;99386.72;4994206;28;20373;-51
2022/05/04 11:58:14;;;;;;;33.08;17.33;;;;;;;20.34;43.59;99385.50;5007499;28;20088;-53